Time;durP1;ratioP1;P1;durP2;ratioP2;P2;SDS_P1;SDS_P2;PMS_P1;PMS_P2;Temp;Humidity;BMP_temperature;BMP_pressure;BME280_temperature;BME280_humidity;BME280_pressure;Samples;Min_cycle;Max_cycle;Signal;HPM_P1;HPM_P2
2022/12/30 00:00:19;;;;;;;16.02;4.22;;;5.90;97.50;;;;;;5027202;28;20040;-68
2022/12/30 00:02:45;;;;;;;17.10;4.32;;;5.90;97.50;;;;;;5031061;28;20037;-66
2022/12/30 00:05:10;;;;;;;16.60;4.03;;;5.90;97.30;;;;;;5026805;28;20448;-68
2022/12/30 00:07:36;;;;;;;22.35;4.70;;;5.90;97.20;;;;;;5026551;28;20033;-67
2022/12/30 00:10:02;;;;;;;12.30;4.18;;;6.00;96.90;;;;;;5028938;28;20136;-67
2022/12/30 00:35:12;;;;;;;11.60;2.92;;;5.80;96.00;;;;;;5028185;28;20067;-67
2022/12/30 00:37:38;;;;;;;17.02;3.50;;;5.80;96.00;;;;;;5028429;28;20045;-67
2022/12/30 00:40:03;;;;;;;9.43;3.20;;;5.80;96.20;;;;;;5030311;28;20051;-67
2022/12/30 00:45:13;;;;;;;14.95;3.15;;;5.90;95.90;;;;;;5022557;28;20227;-68
2022/12/30 00:47:38;;;;;;;11.65;3.30;;;5.80;96.00;;;;;;5025638;28;20112;-67
2022/12/30 00:58:16;;;;;;;15.68;2.85;;;5.80;95.70;;;;;;5026380;28;20041;-67
2022/12/30 01:00:42;;;;;;;16.60;3.08;;;5.70;95.90;;;;;;5024350;28;20033;-69
2022/12/30 01:03:07;;;;;;;14.88;3.10;;;5.70;96.00;;;;;;5027517;28;20036;-68
2022/12/30 01:05:36;;;;;;;13.35;3.05;;;5.70;96.10;;;;;;5026069;28;20048;-69
2022/12/30 01:08:05;;;;;;;18.58;3.22;;;5.70;96.00;;;;;;5024934;28;20736;-67
2022/12/30 01:10:30;;;;;;;11.20;2.65;;;5.80;95.90;;;;;;5028017;28;20051;-68
2022/12/30 01:12:56;;;;;;;15.85;3.22;;;5.80;95.80;;;;;;5027633;28;20033;-70
2022/12/30 01:15:21;;;;;;;10.73;2.75;;;5.80;95.90;;;;;;5023612;28;20434;-67
2022/12/30 01:17:47;;;;;;;16.42;3.08;;;5.80;96.10;;;;;;5026382;28;20069;-67
2022/12/30 01:20:12;;;;;;;14.50;3.50;;;5.80;96.20;;;;;;5026504;28;20120;-67
2022/12/30 01:22:38;;;;;;;12.70;3.20;;;5.90;96.10;;;;;;5024138;28;20054;-69
2022/12/30 01:25:03;;;;;;;10.98;3.28;;;5.90;96.20;;;;;;5023212;28;20114;-67
2022/12/30 01:27:30;;;;;;;13.35;3.05;;;5.90;96.20;;;;;;5025900;28;20033;-67
2022/12/30 01:29:55;;;;;;;13.10;3.28;;;6.00;96.20;;;;;;5026867;28;20033;-69
2022/12/30 01:32:21;;;;;;;19.90;3.20;;;6.00;96.40;;;;;;5020591;28;20415;-67
2022/12/30 01:34:47;;;;;;;17.42;3.95;;;6.00;96.00;;;;;;5029156;28;20118;-70
2022/12/30 01:37:14;;;;;;;12.75;3.22;;;6.00;95.90;;;;;;5027290;28;20462;-68
2022/12/30 01:39:40;;;;;;;15.77;3.28;;;6.00;95.90;;;;;;5031234;28;20386;-67
2022/12/30 01:42:30;;;;;;;16.05;3.78;;;6.00;96.00;;;;;;5026105;28;20089;-66
2022/12/30 01:45:00;;;;;;;17.63;4.70;;;6.10;95.90;;;;;;5026701;28;20477;-68
2022/12/30 01:47:37;;;;;;;17.45;3.83;;;6.10;95.80;;;;;;5025931;28;20040;-68
2022/12/30 01:50:33;;;;;;;15.20;3.40;;;6.10;95.60;;;;;;5023827;28;20073;-68
2022/12/30 01:53:04;;;;;;;12.75;3.30;;;6.10;95.60;;;;;;5005030;28;20045;-67
2022/12/30 01:55:39;;;;;;;19.73;3.83;;;6.20;95.30;;;;;;5027461;28;20025;-67
2022/12/30 01:58:11;;;;;;;12.38;2.97;;;6.10;95.40;;;;;;5028049;28;20048;-68
2022/12/30 02:00:36;;;;;;;14.93;3.60;;;6.20;95.40;;;;;;5023939;28;20462;-67
2022/12/30 02:03:02;;;;;;;17.05;4.03;;;6.20;95.40;;;;;;5025239;28;20030;-68
2022/12/30 02:05:31;;;;;;;17.90;3.50;;;6.20;95.10;;;;;;5026662;28;20041;-67
2022/12/30 02:08:06;;;;;;;13.95;3.28;;;6.20;95.30;;;;;;5028705;28;20036;-67
2022/12/30 02:10:33;;;;;;;9.95;3.42;;;6.10;95.40;;;;;;5033701;28;20042;-66
2022/12/30 02:12:59;;;;;;;16.02;3.05;;;6.10;95.10;;;;;;5028809;28;20400;-69
2022/12/30 02:15:28;;;;;;;17.95;3.97;;;6.10;95.30;;;;;;5033006;28;20043;-69
2022/12/30 02:18:15;;;;;;;12.85;3.08;;;6.00;95.60;;;;;;5031646;28;20364;-67
2022/12/30 02:20:43;;;;;;;19.25;4.13;;;6.00;95.70;;;;;;5031661;28;20065;-67
2022/12/30 02:23:24;;;;;;;14.43;3.60;;;6.10;95.60;;;;;;5029637;28;20042;-67
2022/12/30 02:26:01;;;;;;;12.88;3.30;;;6.10;95.50;;;;;;5031883;28;20036;-69
2022/12/30 02:29:11;;;;;;;12.27;4.00;;;6.10;95.60;;;;;;5023080;28;20136;-68
2022/12/30 02:31:55;;;;;;;12.00;3.33;;;6.10;95.40;;;;;;5030772;28;20065;-67
2022/12/30 02:34:44;;;;;;;18.58;4.15;;;6.10;95.30;;;;;;5029344;28;20037;-67
2022/12/30 02:37:33;;;;;;;18.42;3.75;;;6.20;95.30;;;;;;5024944;28;20026;-67
2022/12/30 02:40:05;;;;;;;17.42;3.88;;;6.20;95.20;;;;;;5032695;28;20029;-69
2022/12/30 02:45:44;;;;;;;16.50;3.45;;;6.10;95.40;;;;;;5028848;28;20040;-68
2022/12/30 02:48:24;;;;;;;16.92;3.60;;;6.20;95.30;;;;;;5029176;28;20025;-67
2022/12/30 02:53:49;;;;;;;15.13;3.72;;;6.20;95.30;;;;;;5023985;28;20042;-66
2022/12/30 02:56:15;;;;;;;13.23;3.22;;;6.20;95.20;;;;;;5029382;28;20091;-67
2022/12/30 02:58:47;;;;;;;17.67;3.78;;;6.20;95.00;;;;;;5028833;28;20056;-67
2022/12/30 03:04:28;;;;;;;14.80;3.40;;;6.30;94.60;;;;;;5020371;28;20494;-69
2022/12/30 03:07:19;;;;;;;18.23;4.00;;;6.40;94.30;;;;;;5028388;28;20047;-69
2022/12/30 03:13:08;;;;;;;12.85;3.55;;;6.40;94.10;;;;;;5027182;28;20056;-69
2022/12/30 03:15:56;;;;;;;14.27;3.28;;;6.30;94.30;;;;;;5024536;28;20462;-67
2022/12/30 03:18:23;;;;;;;11.02;2.92;;;6.30;94.40;;;;;;5027899;28;20099;-67
2022/12/30 03:20:51;;;;;;;18.10;4.13;;;6.40;94.20;;;;;;5028684;28;20112;-68
2022/12/30 03:28:50;;;;;;;12.95;3.60;;;6.40;93.70;;;;;;5022998;28;20405;-68
2022/12/30 03:31:16;;;;;;;18.90;3.80;;;6.40;93.80;;;;;;5031854;28;20034;-67
2022/12/30 03:33:43;;;;;;;16.58;3.63;;;6.40;93.80;;;;;;5032645;28;20057;-68
2022/12/30 03:36:26;;;;;;;12.13;3.13;;;6.40;93.70;;;;;;5026535;28;20033;-66
2022/12/30 03:38:58;;;;;;;11.02;3.20;;;6.30;94.00;;;;;;5033493;28;20476;-68
2022/12/30 03:41:25;;;;;;;19.35;3.55;;;6.30;93.90;;;;;;5031774;28;20045;-67
2022/12/30 03:43:52;;;;;;;13.30;3.08;;;6.30;94.20;;;;;;5025643;28;20033;-67
2022/12/30 03:46:31;;;;;;;16.67;3.05;;;6.20;94.50;;;;;;5030095;28;20033;-67
2022/12/30 03:48:57;;;;;;;16.38;3.53;;;6.20;94.40;;;;;;5029774;28;20052;-66
2022/12/30 03:51:22;;;;;;;12.38;3.20;;;6.20;94.20;;;;;;5023079;28;20477;-67
2022/12/30 03:53:48;;;;;;;15.30;3.53;;;6.30;94.00;;;;;;5027841;28;20488;-67
2022/12/30 03:56:13;;;;;;;13.30;3.28;;;6.30;94.20;;;;;;5029254;28;20650;-68
2022/12/30 03:58:39;;;;;;;15.75;3.40;;;6.30;94.00;;;;;;5029288;28;20065;-67
2022/12/30 04:01:04;;;;;;;19.33;4.80;;;6.20;94.10;;;;;;5030249;28;20433;-67
2022/12/30 04:03:30;;;;;;;19.48;4.07;;;6.20;94.20;;;;;;5029367;28;20033;-67
2022/12/30 04:05:55;;;;;;;14.85;3.67;;;6.20;94.10;;;;;;5026759;28;20454;-67
2022/12/30 04:08:22;;;;;;;17.38;3.47;;;6.20;94.10;;;;;;5028154;28;20389;-67
2022/12/30 04:10:47;;;;;;;11.05;3.45;;;6.20;93.90;;;;;;5027303;28;20026;-66
2022/12/30 04:13:13;;;;;;;11.23;3.22;;;6.20;93.70;;;;;;5026950;28;20101;-68
2022/12/30 04:15:38;;;;;;;16.00;3.03;;;6.20;93.80;;;;;;5028620;28;20128;-67
2022/12/30 04:18:04;;;;;;;15.27;3.58;;;6.20;93.80;;;;;;5026181;28;20111;-68
2022/12/30 04:20:29;;;;;;;12.65;3.70;;;6.20;93.80;;;;;;5027668;28;20041;-67
2022/12/30 04:22:57;;;;;;;19.58;3.85;;;6.20;94.00;;;;;;5027474;28;20084;-67
2022/12/30 04:25:23;;;;;;;14.07;3.90;;;6.10;93.80;;;;;;5026631;28;20521;-67
2022/12/30 04:27:48;;;;;;;17.42;3.67;;;6.10;93.90;;;;;;5025965;28;20454;-68
2022/12/30 04:30:14;;;;;;;20.63;3.55;;;6.10;93.90;;;;;;5028212;28;20127;-67
2022/12/30 04:32:40;;;;;;;13.45;2.90;;;6.10;94.00;;;;;;5023818;28;20084;-69
2022/12/30 04:35:05;;;;;;;12.20;3.15;;;6.10;94.10;;;;;;5026498;28;20033;-69
2022/12/30 04:37:31;;;;;;;11.60;3.70;;;6.10;94.00;;;;;;5030028;28;20041;-69
2022/12/30 04:39:57;;;;;;;15.23;2.92;;;6.10;94.10;;;;;;5030666;28;20037;-67
2022/12/30 04:42:22;;;;;;;14.18;3.33;;;6.10;94.10;;;;;;5028447;28;20103;-67
2022/12/30 04:44:47;;;;;;;14.43;3.53;;;6.10;93.90;;;;;;5024981;28;20026;-68
2022/12/30 04:47:13;;;;;;;15.85;3.22;;;6.10;93.90;;;;;;5025398;28;20033;-67
2022/12/30 04:49:39;;;;;;;13.30;3.50;;;6.10;93.80;;;;;;5027273;28;20432;-67
2022/12/30 04:52:04;;;;;;;16.33;3.47;;;6.10;93.80;;;;;;5025126;28;20069;-67
2022/12/30 04:54:30;;;;;;;21.77;3.85;;;6.00;94.00;;;;;;5026421;28;20041;-67
2022/12/30 04:56:55;;;;;;;11.95;3.08;;;6.00;94.10;;;;;;5028701;28;20489;-67
2022/12/30 04:59:21;;;;;;;12.23;3.60;;;5.90;94.20;;;;;;5025146;28;20037;-67
2022/12/30 05:01:47;;;;;;;13.45;2.83;;;5.80;94.30;;;;;;5027483;28;20474;-67
2022/12/30 05:04:12;;;;;;;10.93;3.15;;;5.70;94.40;;;;;;5021731;28;21630;-69
2022/12/30 05:06:38;;;;;;;17.30;3.50;;;5.60;94.50;;;;;;5025259;28;20080;-69
2022/12/30 05:09:04;;;;;;;15.85;3.75;;;5.60;94.70;;;;;;5025897;28;20037;-67
2022/12/30 05:11:29;;;;;;;18.73;3.47;;;5.40;94.90;;;;;;5025183;28;20159;-67
2022/12/30 05:13:55;;;;;;;13.13;3.40;;;5.30;95.00;;;;;;5028563;28;20592;-67
2022/12/30 05:16:20;;;;;;;15.20;3.85;;;5.30;95.10;;;;;;5029429;28;20480;-66
2022/12/30 05:18:46;;;;;;;17.23;3.78;;;5.30;95.00;;;;;;5026663;28;20076;-68
2022/12/30 05:21:11;;;;;;;14.10;3.92;;;5.20;95.20;;;;;;5026644;28;20506;-67
2022/12/30 05:26:21;;;;;;;17.45;4.13;;;5.10;95.60;;;;;;5029252;28;20448;-67
2022/12/30 05:28:47;;;;;;;11.73;3.67;;;5.10;95.60;;;;;;5026161;28;20037;-68
2022/12/30 05:31:14;;;;;;;20.75;4.10;;;5.00;95.70;;;;;;5028664;28;20389;-68
2022/12/30 05:33:40;;;;;;;18.42;5.13;;;5.00;95.60;;;;;;5029101;28;20041;-68
2022/12/30 05:36:06;;;;;;;16.85;4.20;;;5.00;95.90;;;;;;5023414;28;20033;-68
2022/12/30 05:38:32;;;;;;;15.07;4.18;;;5.00;95.80;;;;;;5025218;28;20056;-68
2022/12/30 05:40:58;;;;;;;12.73;3.17;;;5.00;95.90;;;;;;5027402;28;20045;-68
2022/12/30 05:43:24;;;;;;;17.75;4.70;;;5.00;95.70;;;;;;5027655;28;21061;-68
2022/12/30 05:45:49;;;;;;;14.25;3.95;;;4.90;95.70;;;;;;5030955;28;20132;-68
2022/12/30 05:48:16;;;;;;;13.68;4.07;;;5.00;95.80;;;;;;5025422;28;20025;-68
2022/12/30 05:50:41;;;;;;;16.27;4.22;;;5.00;95.80;;;;;;5024847;28;20029;-68
2022/12/30 05:53:07;;;;;;;13.30;4.53;;;5.00;95.90;;;;;;5030201;28;20091;-70
2022/12/30 05:55:32;;;;;;;19.02;4.25;;;5.00;95.80;;;;;;5032500;28;20037;-67
2022/12/30 05:57:58;;;;;;;13.85;4.30;;;5.00;95.70;;;;;;5029195;28;20116;-69
2022/12/30 06:00:23;;;;;;;10.68;3.45;;;4.90;95.80;;;;;;5028664;28;20091;-68
2022/12/30 06:02:49;;;;;;;17.83;4.18;;;4.80;95.90;;;;;;5030907;28;20390;-68
2022/12/30 06:05:14;;;;;;;14.18;5.10;;;4.80;96.30;;;;;;5028819;28;20029;-68
2022/12/30 06:07:40;;;;;;;14.25;4.43;;;5.00;95.90;;;;;;5022411;28;20468;-69
2022/12/30 06:10:07;;;;;;;17.25;4.60;;;4.90;95.90;;;;;;5028646;28;20038;-68
2022/12/30 06:12:32;;;;;;;15.55;4.03;;;4.80;95.80;;;;;;5032397;28;20033;-68
2022/12/30 06:14:58;;;;;;;13.95;3.50;;;4.80;96.20;;;;;;5031974;28;20029;-68
2022/12/30 06:17:23;;;;;;;17.70;4.22;;;4.70;96.30;;;;;;5032071;28;20029;-68
2022/12/30 06:19:49;;;;;;;17.83;4.63;;;4.60;96.40;;;;;;5030555;28;20096;-68
2022/12/30 06:22:14;;;;;;;16.70;3.88;;;4.60;96.50;;;;;;5029483;28;20492;-68
2022/12/30 06:24:40;;;;;;;19.40;3.88;;;4.50;96.70;;;;;;5029904;28;20593;-68
2022/12/30 06:27:05;;;;;;;15.88;3.92;;;4.50;97.00;;;;;;5033049;28;20057;-67
2022/12/30 06:29:31;;;;;;;17.10;3.90;;;4.60;96.90;;;;;;5030489;28;20040;-68
2022/12/30 06:31:56;;;;;;;16.98;4.07;;;4.60;96.80;;;;;;5030104;28;20083;-67
2022/12/30 06:34:22;;;;;;;14.52;3.40;;;4.40;96.60;;;;;;5026869;28;20447;-68
2022/12/30 06:36:47;;;;;;;11.27;3.83;;;4.40;96.80;;;;;;5031238;28;20037;-68
2022/12/30 06:39:13;;;;;;;19.92;3.85;;;4.30;97.00;;;;;;5028880;28;20049;-68
2022/12/30 06:41:38;;;;;;;17.67;3.80;;;4.30;97.20;;;;;;5029874;28;20450;-68
2022/12/30 06:44:04;;;;;;;12.45;3.63;;;4.40;97.30;;;;;;5031249;28;20044;-67
2022/12/30 06:46:30;;;;;;;20.58;4.22;;;4.30;97.20;;;;;;5031559;28;20033;-69
2022/12/30 06:48:55;;;;;;;18.73;4.10;;;4.30;97.40;;;;;;5029588;28;20037;-68
2022/12/30 06:51:21;;;;;;;15.43;4.15;;;4.20;97.30;;;;;;5030190;28;20041;-68
2022/12/30 06:53:47;;;;;;;12.63;3.83;;;4.10;97.40;;;;;;5026562;28;20501;-67
2022/12/30 06:56:12;;;;;;;18.20;4.05;;;4.20;97.70;;;;;;5031441;28;20045;-68
2022/12/30 06:58:38;;;;;;;15.00;4.20;;;4.20;97.60;;;;;;5030656;28;20041;-68
2022/12/30 07:01:03;;;;;;;16.25;4.95;;;4.10;97.60;;;;;;5029804;28;20443;-68
2022/12/30 07:03:29;;;;;;;19.40;4.70;;;4.10;97.80;;;;;;5029097;28;20108;-67
2022/12/30 07:05:54;;;;;;;21.02;5.00;;;4.10;97.90;;;;;;5029753;28;20041;-68
2022/12/30 07:08:20;;;;;;;20.17;4.25;;;4.10;97.90;;;;;;5029213;28;20481;-67
2022/12/30 07:10:45;;;;;;;20.95;4.43;;;4.10;98.00;;;;;;5026143;28;20033;-67
2022/12/30 07:13:13;;;;;;;13.15;4.53;;;4.20;98.00;;;;;;5028733;28;20044;-67
2022/12/30 07:15:39;;;;;;;13.32;3.75;;;4.10;97.90;;;;;;5030124;28;20037;-67
2022/12/30 07:18:05;;;;;;;18.92;5.00;;;4.10;98.20;;;;;;5028569;28;20034;-68
2022/12/30 07:20:30;;;;;;;12.93;3.78;;;4.10;98.10;;;;;;5030331;28;20088;-67
2022/12/30 07:22:56;;;;;;;15.82;4.60;;;4.00;98.10;;;;;;5026860;28;20110;-67
2022/12/30 07:25:21;;;;;;;15.05;4.45;;;3.90;98.10;;;;;;5029537;28;20162;-67
2022/12/30 07:27:46;;;;;;;18.38;3.70;;;4.00;98.30;;;;;;5027234;28;20029;-67
2022/12/30 07:30:13;;;;;;;19.92;4.88;;;4.00;98.40;;;;;;5029805;28;20037;-67
2022/12/30 07:32:39;;;;;;;16.92;4.35;;;3.90;98.40;;;;;;5028930;28;20037;-66
2022/12/30 07:35:07;;;;;;;26.25;4.35;;;3.80;98.40;;;;;;5028306;28;20033;-67
2022/12/30 07:37:34;;;;;;;19.17;4.20;;;3.90;98.70;;;;;;5028182;28;20044;-68
2022/12/30 07:39:59;;;;;;;18.38;4.47;;;3.90;98.60;;;;;;5028063;28;20390;-71
2022/12/30 07:42:25;;;;;;;22.77;4.22;;;3.90;98.70;;;;;;5029159;28;20051;-67
2022/12/30 07:44:50;;;;;;;19.50;3.78;;;3.90;98.60;;;;;;5029555;28;20394;-67
2022/12/30 07:47:15;;;;;;;17.60;4.32;;;3.90;98.70;;;;;;5028246;28;20367;-68
2022/12/30 07:49:41;;;;;;;19.30;4.07;;;4.00;98.70;;;;;;5028519;28;20069;-67
2022/12/30 07:52:06;;;;;;;19.48;3.85;;;4.00;98.70;;;;;;5018595;28;20040;-68
2022/12/30 07:54:32;;;;;;;17.98;4.07;;;3.90;98.40;;;;;;5030541;28;20839;-67
2022/12/30 07:56:57;;;;;;;20.92;3.97;;;4.00;98.70;;;;;;5025144;28;20116;-68
2022/12/30 07:59:23;;;;;;;21.98;4.32;;;4.00;98.70;;;;;;5028502;28;20496;-69
2022/12/30 08:01:48;;;;;;;20.70;4.47;;;4.00;98.60;;;;;;5026353;28;20116;-67
2022/12/30 08:04:14;;;;;;;22.27;4.50;;;4.00;98.60;;;;;;5026054;28;20029;-68
2022/12/30 08:06:39;;;;;;;14.88;4.15;;;4.10;98.60;;;;;;5026636;28;20040;-69
2022/12/30 08:09:05;;;;;;;19.67;4.85;;;4.10;98.60;;;;;;5023271;28;20037;-67
2022/12/30 08:11:32;;;;;;;16.55;3.90;;;4.10;98.50;;;;;;5029700;28;20034;-67
2022/12/30 08:13:57;;;;;;;14.95;4.25;;;4.10;98.50;;;;;;5028376;28;20474;-67
2022/12/30 08:16:23;;;;;;;22.27;4.82;;;4.10;98.50;;;;;;5025522;28;20037;-68
2022/12/30 08:18:48;;;;;;;22.35;5.07;;;4.10;98.50;;;;;;5026884;28;20041;-68
2022/12/30 08:21:16;;;;;;;19.30;4.30;;;4.10;98.40;;;;;;5020951;28;20075;-67
2022/12/30 08:23:44;;;;;;;25.63;4.85;;;4.10;98.40;;;;;;5028205;28;20450;-67
2022/12/30 08:26:13;;;;;;;22.77;4.70;;;4.10;98.40;;;;;;5028458;28;20061;-68
2022/12/30 08:28:39;;;;;;;19.10;4.50;;;4.20;98.40;;;;;;5024108;28;20135;-67
2022/12/30 08:31:10;;;;;;;22.10;4.45;;;4.30;98.40;;;;;;5025755;28;20033;-68
2022/12/30 08:33:36;;;;;;;18.73;4.10;;;4.40;98.30;;;;;;5025088;28;20136;-69
2022/12/30 08:36:04;;;;;;;19.10;4.32;;;4.50;98.10;;;;;;5022831;28;20160;-67
2022/12/30 08:38:30;;;;;;;24.10;4.38;;;4.50;98.00;;;;;;5022132;28;20029;-67
2022/12/30 08:41:07;;;;;;;21.50;5.25;;;4.40;97.90;;;;;;5026035;28;20056;-67
2022/12/30 08:43:33;;;;;;;16.23;3.75;;;4.40;97.80;;;;;;5017994;28;20040;-68
2022/12/30 08:45:58;;;;;;;18.20;4.20;;;4.40;97.80;;;;;;5023483;28;20030;-67
2022/12/30 08:48:24;;;;;;;22.08;4.70;;;4.50;97.80;;;;;;5022602;28;20072;-69
2022/12/30 08:50:51;;;;;;;17.00;4.25;;;4.60;97.70;;;;;;5022664;28;20399;-68
2022/12/30 08:53:17;;;;;;;14.10;4.07;;;4.60;97.50;;;;;;5022856;28;20056;-67
2022/12/30 08:55:42;;;;;;;19.33;3.63;;;4.70;97.50;;;;;;5018997;28;20502;-67
2022/12/30 08:58:08;;;;;;;12.18;4.10;;;4.70;97.40;;;;;;5019894;28;20131;-67
2022/12/30 09:00:33;;;;;;;17.92;3.03;;;4.80;97.20;;;;;;5024254;28;20211;-70
2022/12/30 09:02:59;;;;;;;19.50;3.53;;;4.90;96.90;;;;;;5011938;28;20823;-68
2022/12/30 09:05:24;;;;;;;22.38;3.92;;;5.00;96.60;;;;;;5022361;28;20034;-67
2022/12/30 09:07:50;;;;;;;15.57;3.80;;;5.00;96.50;;;;;;5024911;28;20044;-67
2022/12/30 09:10:15;;;;;;;15.32;2.92;;;5.10;96.20;;;;;;5021784;28;20025;-68
2022/12/30 09:12:41;;;;;;;14.63;2.38;;;5.10;96.10;;;;;;5020526;28;20068;-68
2022/12/30 09:15:07;;;;;;;18.02;3.17;;;5.20;95.70;;;;;;5027516;28;20112;-67
2022/12/30 09:17:33;;;;;;;14.32;2.78;;;5.20;95.70;;;;;;5028405;28;20147;-66
2022/12/30 09:19:58;;;;;;;19.60;2.70;;;5.30;95.40;;;;;;5027659;28;20481;-67
2022/12/30 09:22:24;;;;;;;15.00;2.38;;;5.30;95.50;;;;;;5025859;28;20060;-67
2022/12/30 09:24:49;;;;;;;9.93;2.40;;;5.40;95.50;;;;;;5031690;28;20091;-66
2022/12/30 09:27:15;;;;;;;14.75;2.60;;;5.50;94.90;;;;;;5028899;28;20040;-67
2022/12/30 09:29:40;;;;;;;13.18;2.58;;;5.50;95.00;;;;;;5030151;28;20030;-66
2022/12/30 09:32:05;;;;;;;12.70;2.70;;;5.60;94.60;;;;;;5020629;28;20083;-69
2022/12/30 09:34:31;;;;;;;12.10;2.72;;;5.70;94.30;;;;;;5025256;28;20437;-71
2022/12/30 09:36:56;;;;;;;10.18;2.13;;;5.80;93.90;;;;;;5025632;28;20033;-69
2022/12/30 09:39:30;;;;;;;9.82;2.10;;;5.80;93.60;;;;;;5029779;28;20029;-67
2022/12/30 09:45:04;;;;;;;9.10;1.77;;;5.80;93.90;;;;;;5032239;28;20484;-66
2022/12/30 09:47:36;;;;;;;15.68;2.53;;;5.90;93.90;;;;;;5023808;28;20389;-68
2022/12/30 09:50:13;;;;;;;15.20;2.67;;;6.00;93.30;;;;;;5029732;28;20053;-66
2022/12/30 09:53:01;;;;;;;16.30;2.38;;;6.10;92.80;;;;;;5023739;28;20892;-66
2022/12/30 09:55:31;;;;;;;14.07;2.45;;;6.20;92.70;;;;;;5029902;28;20021;-67
2022/12/30 09:58:04;;;;;;;10.57;2.38;;;6.20;92.80;;;;;;5028332;28;20029;-67
2022/12/30 10:00:34;;;;;;;12.48;2.53;;;6.30;92.80;;;;;;5032308;28;20025;-67
2022/12/30 10:03:10;;;;;;;14.73;2.63;;;6.30;92.80;;;;;;5029178;28;20042;-68
2022/12/30 10:05:54;;;;;;;15.00;2.42;;;6.30;92.80;;;;;;5032187;28;20033;-67
2022/12/30 10:08:34;;;;;;;13.85;2.33;;;6.40;92.50;;;;;;5029365;28;20039;-66
2022/12/30 10:11:13;;;;;;;11.32;2.38;;;6.50;92.20;;;;;;5030663;28;20424;-69
2022/12/30 10:13:55;;;;;;;14.57;2.45;;;6.50;92.00;;;;;;5023011;28;21228;-69
2022/12/30 10:17:02;;;;;;;16.10;2.00;;;6.60;91.70;;;;;;5021873;28;20767;-68
2022/12/30 10:19:40;;;;;;;12.68;2.25;;;6.60;91.30;;;;;;5019968;28;20049;-69
2022/12/30 10:22:16;;;;;;;7.95;2.15;;;6.60;91.20;;;;;;5027571;28;22550;-67
2022/12/30 10:24:47;;;;;;;9.50;2.25;;;6.60;90.90;;;;;;5026528;28;20027;-67
2022/12/30 10:27:24;;;;;;;10.43;2.00;;;6.60;90.60;;;;;;5027973;28;20025;-69
2022/12/30 10:29:50;;;;;;;11.32;1.98;;;6.60;90.90;;;;;;5026050;28;20060;-67
2022/12/30 10:32:27;;;;;;;13.40;1.80;;;6.70;90.50;;;;;;5026916;28;20042;-70
2022/12/30 10:35:03;;;;;;;17.15;2.20;;;6.70;90.40;;;;;;5020503;28;20029;-68
2022/12/30 10:37:32;;;;;;;6.40;1.50;;;6.70;90.30;;;;;;5027838;28;20433;-68
2022/12/30 10:39:59;;;;;;;9.15;1.95;;;6.70;90.50;;;;;;5024467;28;20128;-68
2022/12/30 10:42:57;;;;;;;15.95;2.05;;;6.70;90.30;;;;;;5026003;28;20377;-68
2022/12/30 10:45:54;;;;;;;11.50;1.70;;;6.70;90.60;;;;;;5029383;28;20759;-68
2022/12/30 10:48:51;;;;;;;10.25;1.73;;;6.60;90.50;;;;;;5016249;28;20026;-69
2022/12/30 10:51:18;;;;;;;9.32;2.10;;;6.60;89.90;;;;;;5028589;28;20034;-69
2022/12/30 10:53:47;;;;;;;15.13;1.67;;;6.60;90.60;;;;;;5024798;28;20034;-68
2022/12/30 10:56:27;;;;;;;15.35;2.03;;;6.60;90.30;;;;;;5020347;28;20021;-68
2022/12/30 10:58:58;;;;;;;9.07;1.85;;;6.70;89.80;;;;;;5029197;28;20096;-67
2022/12/30 11:01:31;;;;;;;9.55;1.50;;;6.70;89.90;;;;;;5028205;28;20040;-68
2022/12/30 11:03:58;;;;;;;9.50;1.40;;;6.70;89.60;;;;;;5027263;28;20044;-68
2022/12/30 11:06:56;;;;;;;8.85;1.80;;;6.70;89.80;;;;;;5030992;28;20021;-68
2022/12/30 11:09:23;;;;;;;10.55;1.63;;;6.80;90.00;;;;;;5026878;28;20084;-68
2022/12/30 11:14:43;;;;;;;8.77;1.60;;;6.90;88.90;;;;;;5029494;28;20039;-68
2022/12/30 11:17:14;;;;;;;5.30;1.83;;;6.90;88.90;;;;;;5032359;28;20113;-68
2022/12/30 11:19:41;;;;;;;9.32;1.70;;;7.00;89.40;;;;;;5024465;28;20034;-68
2022/12/30 11:22:07;;;;;;;7.88;1.65;;;7.00;88.90;;;;;;5030813;28;20053;-68
2022/12/30 11:24:33;;;;;;;13.13;1.90;;;7.00;88.60;;;;;;5031637;28;20040;-69
2022/12/30 11:27:00;;;;;;;7.50;1.35;;;7.10;87.50;;;;;;5027942;28;20042;-68
2022/12/30 11:29:29;;;;;;;15.02;1.88;;;7.00;87.80;;;;;;5031655;28;20063;-67
2022/12/30 11:31:55;;;;;;;8.98;1.58;;;7.10;88.40;;;;;;5031379;28;20033;-67
2022/12/30 11:34:32;;;;;;;6.90;1.27;;;7.10;88.00;;;;;;5026030;28;20029;-68
2022/12/30 11:37:00;;;;;;;7.85;1.40;;;7.10;88.10;;;;;;5025956;28;20099;-68
2022/12/30 11:39:31;;;;;;;9.88;1.40;;;7.10;88.20;;;;;;5022909;28;20056;-67
2022/12/30 11:41:59;;;;;;;12.52;1.63;;;7.10;87.30;;;;;;5030615;28;20033;-69
2022/12/30 11:44:28;;;;;;;8.95;1.70;;;7.10;87.70;;;;;;5024540;28;20120;-69
2022/12/30 11:46:55;;;;;;;6.93;1.85;;;7.10;87.10;;;;;;5031528;28;20056;-68
2022/12/30 11:49:46;;;;;;;4.22;1.23;;;7.10;87.90;;;;;;5025793;28;20437;-67
2022/12/30 11:52:19;;;;;;;7.57;1.42;;;7.10;87.40;;;;;;5026529;28;20037;-70
2022/12/30 11:54:50;;;;;;;6.63;1.65;;;7.10;86.80;;;;;;5022952;28;20034;-68
2022/12/30 11:57:24;;;;;;;8.25;1.40;;;7.10;87.50;;;;;;5020421;28;20032;-69
2022/12/30 11:59:54;;;;;;;6.80;1.35;;;7.10;87.30;;;;;;5018734;28;20079;-68
2022/12/30 12:02:31;;;;;;;6.22;1.20;;;7.20;87.20;;;;;;5024267;28;20083;-69
2022/12/30 12:04:56;;;;;;;6.95;1.30;;;7.20;87.40;;;;;;5025502;28;20041;-69
2022/12/30 12:07:25;;;;;;;4.25;1.20;;;7.30;87.30;;;;;;5025751;28;20040;-68
2022/12/30 12:09:57;;;;;;;8.10;1.20;;;7.30;86.50;;;;;;5029000;28;20032;-67
2022/12/30 12:12:27;;;;;;;3.60;1.08;;;7.40;86.50;;;;;;5030279;28;20033;-68
2022/12/30 12:15:02;;;;;;;4.55;1.20;;;7.40;85.80;;;;;;5023975;28;20033;-68
2022/12/30 12:17:50;;;;;;;4.85;1.23;;;7.50;87.00;;;;;;5024470;28;20017;-68
2022/12/30 12:20:32;;;;;;;7.43;1.48;;;7.50;85.90;;;;;;5020749;28;20115;-68
2022/12/30 12:23:45;;;;;;;8.50;1.08;;;7.60;85.90;;;;;;5023076;28;20046;-68
2022/12/30 12:26:20;;;;;;;8.80;1.25;;;7.70;85.30;;;;;;5004420;28;20068;-68
2022/12/30 12:28:48;;;;;;;8.88;1.25;;;7.90;85.10;;;;;;5025914;28;20045;-69
2022/12/30 12:31:41;;;;;;;8.13;1.48;;;8.00;84.30;;;;;;5022351;28;20029;-68
2022/12/30 12:34:24;;;;;;;6.07;1.35;;;8.00;83.70;;;;;;5017035;28;20087;-68
2022/12/30 12:36:59;;;;;;;7.88;1.40;;;8.00;84.40;;;;;;5022671;28;20442;-69
2022/12/30 12:39:42;;;;;;;7.03;1.20;;;7.90;84.00;;;;;;5022900;28;20033;-68
2022/12/30 12:42:32;;;;;;;6.60;1.25;;;7.80;83.80;;;;;;5024786;28;20044;-68
2022/12/30 12:45:31;;;;;;;6.53;1.67;;;7.80;84.80;;;;;;5025163;28;20428;-70
2022/12/30 12:48:21;;;;;;;5.07;1.00;;;7.70;84.40;;;;;;5024577;28;20104;-69
2022/12/30 12:51:17;;;;;;;6.30;1.02;;;7.60;85.10;;;;;;5023003;28;20041;-68
2022/12/30 12:54:13;;;;;;;7.13;1.38;;;7.60;85.30;;;;;;5020425;28;20041;-69
2022/12/30 12:56:57;;;;;;;6.82;1.40;;;7.50;85.40;;;;;;5038888;28;20037;-68
2022/12/30 12:59:42;;;;;;;5.30;1.20;;;7.50;85.10;;;;;;5027974;28;20486;-68
2022/12/30 13:02:23;;;;;;;3.30;1.38;;;7.50;85.00;;;;;;5024497;28;20076;-68
2022/12/30 13:05:16;;;;;;;7.25;1.38;;;7.40;85.00;;;;;;5023465;28;20033;-68
2022/12/30 13:08:05;;;;;;;8.65;1.08;;;7.30;85.20;;;;;;5023944;28;20065;-68
2022/12/30 13:10:34;;;;;;;6.22;1.45;;;7.30;86.10;;;;;;5029628;28;20028;-69
2022/12/30 13:13:19;;;;;;;5.43;1.30;;;7.10;86.70;;;;;;5024195;28;20042;-68
2022/12/30 13:15:53;;;;;;;5.38;1.35;;;7.10;86.30;;;;;;5022655;28;20069;-69
2022/12/30 13:18:23;;;;;;;4.95;1.13;;;7.10;86.70;;;;;;5027174;28;20095;-68
2022/12/30 13:20:58;;;;;;;5.22;1.40;;;7.10;86.80;;;;;;5021845;28;20393;-68
2022/12/30 13:23:28;;;;;;;6.97;1.42;;;7.00;87.40;;;;;;5027613;28;20037;-68
2022/12/30 13:26:02;;;;;;;6.20;1.40;;;7.00;87.10;;;;;;5027962;28;20120;-67
2022/12/30 13:28:31;;;;;;;4.88;1.40;;;7.00;87.50;;;;;;5030689;28;20048;-68
2022/12/30 13:31:39;;;;;;;7.03;1.42;;;7.00;87.20;;;;;;5027056;28;20094;-68
2022/12/30 13:34:30;;;;;;;4.57;1.00;;;7.00;87.60;;;;;;5019456;28;20088;-69
2022/12/30 13:37:27;;;;;;;8.35;2.05;;;7.00;87.30;;;;;;5024880;28;20375;-68
2022/12/30 13:40:10;;;;;;;6.68;1.35;;;7.00;87.50;;;;;;5020465;28;20408;-67
2022/12/30 13:42:47;;;;;;;6.18;1.35;;;7.00;87.80;;;;;;5027064;28;20048;-67
2022/12/30 13:45:41;;;;;;;5.75;1.27;;;6.90;88.10;;;;;;5023961;28;20523;-67
2022/12/30 13:48:09;;;;;;;9.27;1.48;;;6.90;88.00;;;;;;5027353;28;20037;-69
2022/12/30 13:50:36;;;;;;;4.85;1.33;;;6.90;88.10;;;;;;5026116;28;20034;-69
2022/12/30 13:53:24;;;;;;;9.43;1.50;;;6.80;88.40;;;;;;5026740;28;20472;-69
2022/12/30 13:55:50;;;;;;;7.03;1.90;;;6.80;88.40;;;;;;5027141;28;20377;-68
2022/12/30 13:58:26;;;;;;;10.80;1.65;;;6.90;88.00;;;;;;5026361;28;20112;-68
2022/12/30 14:01:22;;;;;;;10.30;1.98;;;6.80;88.40;;;;;;5024040;28;20470;-68
2022/12/30 14:04:11;;;;;;;8.32;1.85;;;6.90;88.00;;;;;;5027910;28;20100;-68
2022/12/30 14:06:48;;;;;;;8.73;1.67;;;6.90;88.20;;;;;;5014662;28;20059;-68
2022/12/30 14:09:17;;;;;;;10.23;1.88;;;6.90;87.90;;;;;;5031344;28;20037;-68